Felisburgo, Brazil
Current Conditions -  °F | °C
As of 3:00 PM on Saturday 20 Dec 2014 (Local Time) from SBPS Reporting Station
Scattered Clouds Scattered Clouds  
Wind Chill: 86°   Ceiling: Unl
Heat Index: 92°   Visibility: 6mi
Dew Point: 72°   Wind: 18mph
Humidity: 62%   Direction: 60°ENE
Pressure: 29.88"   Gusts: NA
Location:  16.64°S, 40.76°W
Report Text: SBPS 201700Z 06016KT 9999 SCT020 30/22 Q1012
Loading
Personal Weather Stations






























Interactive Weather Map New forecast layout! Learn more

10-Day Weather Forecast

Advertisements
Track Severe Weather on mobile